Home > Products > Valid Products > TAF

000
FTUS43 KAPX 160400 AAA
TAFTVC
TAF AMD
KTVC 160408Z 1604/1624 VRB03KT P6SM SCT050 SCT200
      TEMPO 1604/1605 26008KT 1SM -SHSN BKN020
     FM161400 15008KT P6SM SCT050 OVC100=



000
FTUS43 KAPX 160200 AAA
TAFPLN
TAF AMD
KPLN 160239Z 1603/1624 VRB03KT P6SM VCSH SCT015 BKN035
      TEMPO 1603/1606 2SM -SHSN BKN015
     FM160600 VRB02KT P6SM VCSH BKN040
     FM161400 16008KT P6SM SCT050 OVC100
     FM162000 13009KT 5SM -SN OVC040=



000
FTUS43 KAPX 152300
TAFPLN
TAF
KPLN 152320Z 1600/1624 29007KT P6SM VCSH SCT025 BKN040
      TEMPO 1600/1603 2SM -SHSN BKN025
     FM160500 VRB03KT P6SM SCT050 SCT200
     FM161400 16008KT P6SM SCT050 OVC100
     FM162000 13009KT 5SM -SN OVC040=



000
FTUS43 KAPX 152300
TAFAPN
TAF
KAPN 152320Z 1600/1624 31008KT P6SM VCSH BKN050
     FM160300 VRB03KT P6SM FEW060 SCT200
     FM161400 15009KT P6SM SCT050 BKN100=



000
FTUS43 KAPX 152300
TAFTVC
TAF
KTVC 152320Z 1600/1624 28009KT P6SM SCT050
     FM160200 VRB03KT P6SM FEW050 SCT200
     FM161400 15008KT P6SM SCT050 OVC100=



000
FTUS43 KAPX 151700
TAFTVC
TAF
KTVC 151720Z 1518/1618 34013KT P6SM BKN040
     FM160000 20006KT P6SM BKN040
     FM160600 00000KT P6SM SCT200
     FM161300 14006KT P6SM OVC100=



000
FTUS43 KAPX 151700
TAFPLN
TAF
KPLN 151720Z 1518/1618 32010G19KT P6SM VCSH BKN040
     FM160000 31007KT 6SM -SHSN SCT025 OVC035
     FM160600 00000KT P6SM SCT200
     FM161300 16007KT P6SM OVC090=



000
FTUS43 KAPX 151700
TAFAPN
TAF
KAPN 151720Z 1518/1618 32012G22KT P6SM -SHSN BKN040
     FM160100 31005KT P6SM -SHSN BKN035
     FM160700 00000KT P6SM SCT200
     FM161400 15009KT P6SM OVC100=



000
FTUS43 KAPX 151400 AAA
TAFTVC
TAF AMD
KTVC 151409Z 1514/1612 34008G15KT P6SM VCSH BKN040
      TEMPO 1514/1516 5SM -SHSN BKN035 OVC045
     FM151700 34008G15KT P6SM -SHSN BKN040
     FM160000 20006KT P6SM BKN040
     FM160500 27003KT P6SM SCT200
     FM160900 VRB02KT P6SM OVC100=



000
FTUS43 KAPX 151400 AAA
TAFPLN
TAF AMD
KPLN 151404Z 1514/1612 31012G18KT P6SM SCT030
     FM151600 32010G18KT P6SM -SHSN BKN040
     FM160000 31007KT 6SM -SHSN BKN035
     FM160600 27003KT P6SM SCT200
     FM161100 VRB02KT P6SM OVC090=



000
FTUS43 KAPX 151100 CCA
TAFTVC
TAF COR
KTVC 151134Z 1512/1612 36005KT 6SM -SHSN BKN025 OVC040
     FM151400 31008G15KT 6SM -SHSN BKN025 OVC040
     FM151700 32008G15KT P6SM -SN BKN040
     FM160000 20006KT P6SM BKN040
     FM160500 27003KT P6SM SCT200
     FM160900 VRB02KT P6SM OVC100=



000
FTUS43 KAPX 151100
TAFTVC
TAF
KTVC 151120Z 1512/1612 36005KT 1 1/2SM -SHSN OVC015
      TEMPO 1512/1514 6SM -SHSN SCT015 OVC025
     FM151400 31008G15KT 6SM -SHSN BKN025 OVC040
     FM151700 32008G15KT P6SM -SN BKN040
     FM160000 20006KT P6SM BKN040
     FM160500 27003KT P6SM SCT200
     FM160900 VRB02KT P6SM OVC100=



000
FTUS43 KAPX 151100
TAFPLN
TAF
KPLN 151120Z 1512/1612 32012KT P6SM -SHSN OVC018
     FM151400 31012G18KT P6SM BKN025 OVC040
     FM151700 32010G18KT P6SM -SHSN BKN040
     FM160000 31007KT 6SM -SHSN BKN040
     FM160500 27003KT P6SM SCT200
     FM161000 VRB02KT P6SM OVC090=



000
FTUS43 KAPX 151100
TAFAPN
TAF
KAPN 151120Z 1512/1612 34011G20KT P6SM VCSH SCT025 OVC040
      TEMPO 1512/1515 2SM -SHSN BKN020 OVC040
     FM151500 32012G22KT P6SM BKN040
     FM151700 32012G22KT P6SM -SHSN BKN050
     FM160000 31009KT P6SM BKN050
     FM160700 27003KT P6SM SCT200
     FM161100 VRB02KT P6SM OVC120=



000
FTUS43 KAPX 150900 AAA
TAFTVC
TAF AMD
KTVC 150957Z 1510/1606 36005KT 2SM -SHSN OVC015
      TEMPO 1510/1514 6SM -SHSN SCT015 OVC025
     FM151400 31008G15KT 6SM -SHSN BKN025 OVC040
     FM151700 32008G15KT P6SM -SN BKN040
     FM160000 20006KT P6SM BKN040=



000
FTUS43 KAPX 150500
TAFAPN
TAF
KAPN 150520Z 1506/1606 32008KT 1 1/2SM -SN OVC025
     FM150700 33008KT 4SM -SN OVC022
     FM150800 34011G20KT P6SM OVC025
     FM151400 32012G22KT P6SM BKN040
     FM151700 32012G22KT P6SM -SN BKN050
     FM160000 31009KT P6SM BKN050=



000
FTUS43 KAPX 150500
TAFTVC
TAF
KTVC 150520Z 1506/1606 32008KT P6SM OVC025
     FM151400 31008G15KT P6SM BKN040
     FM151700 32008G15KT P6SM -SN BKN040
     FM160000 20006KT P6SM -SN BKN040=



000
FTUS43 KAPX 150500
TAFPLN
TAF
KPLN 150520Z 1506/1606 34013G19KT 2SM -SN OVC025
     FM150700 32012KT P6SM OVC025
     FM151400 31012G18KT P6SM BKN040
     FM151700 32010G18KT P6SM -SN BKN040
     FM160000 31007KT P6SM -SN BKN040=



000
FTUS43 KAPX 150400 AAB
TAFTVC
TAF AMD
KTVC 150419Z 1504/1524 35010G16KT 1 1/2SM -SN BR OVC022
     FM150500 33008G16KT 4SM -SN OVC025
     FM150600 32008KT P6SM OVC025
     FM151400 31012G21KT P6SM BKN040=



000
FTUS43 KAPX 150400 AAB
TAFPLN
TAF AMD
KPLN 150416Z 1504/1524 34013G19KT 2SM -SN OVC025
     FM150700 32012KT P6SM OVC025
     FM151400 31013G22KT P6SM BKN040=



000
FTUS43 KAPX 150400 AAB
TAFAPN
TAF AMD
KAPN 150414Z 1504/1524 31008KT 1SM -SN BR VV014
     FM150500 32008KT 1 1/2SM -SN OVC025
     FM150700 33008KT 4SM -SN OVC022
     FM150800 34011G20KT P6SM OVC025
     FM151400 32015G24KT P6SM BKN040=



000
FTUS43 KAPX 150100 AAA
TAFTVC
TAF AMD
KTVC 150151Z 1502/1524 33011G20KT P6SM -SN SCT015 OVC025
      TEMPO 1502/1504 2SM -SN OVC015
     FM150600 33010G18KT P6SM VCSH OVC025
     FM151400 31012G21KT P6SM BKN040=



000
FTUS43 KAPX 150100 AAA
TAFAPN
TAF AMD
KAPN 150150Z 1502/1524 32012G21KT P6SM -SN SCT015 OVC025
      TEMPO 1502/1506 2SM -SN OVC015
     FM150800 34011G20KT P6SM VCSH OVC025
     FM151400 32015G24KT P6SM BKN040=



000
FTUS43 KAPX 150100 AAA
TAFPLN
TAF AMD
KPLN 150150Z 1502/1524 32012G21KT P6SM -SN SCT012 OVC022
      TEMPO 1502/1504 2SM -SN OVC012
     FM150600 32011G20KT P6SM VCSH OVC025
     FM151400 31013G22KT P6SM BKN040=



000
FTUS43 KAPX 142300
TAFPLN
TAF
KPLN 142320Z 1500/1524 32016G25KT P6SM -SN OVC022
      TEMPO 1500/1504 3SM -SN OVC012
     FM150600 32011G20KT P6SM VCSH OVC025
     FM151400 31013G22KT P6SM BKN040=



000
FTUS43 KAPX 142300
TAFTVC
TAF
KTVC 142320Z 1500/1524 33012G21KT P6SM -SN OVC022
      TEMPO 1500/1504 3SM -SN OVC012
     FM150600 33010G18KT P6SM VCSH OVC025
     FM151400 31012G21KT P6SM BKN040=



000
FTUS43 KAPX 142300
TAFAPN
TAF
KAPN 142320Z 1500/1524 32011G20KT P6SM -SN OVC015
      TEMPO 1502/1506 2SM -SN OVC009
     FM150800 34009KT P6SM VCSH OVC025
     FM151400 32015G24KT P6SM BKN040=



000
FTUS43 KAPX 142000 AAA
TAFTVC
TAF AMD
KTVC 142038Z 1421/1518 33016G25KT P6SM OVC019
      TEMPO 1421/1423 2SM -SN OVC012
     FM150100 33012G22KT 2SM -SN OVC015
     FM150700 32010G18KT 6SM -SHSN OVC025
     FM151400 34012KT P6SM BKN035=



000
FTUS43 KAPX 141700
TAFTVC
TAF
KTVC 141720Z 1418/1518 33016G30KT P6SM OVC019
     FM150100 33012G22KT 2SM -SN OVC015
     FM150700 32010G18KT 6SM -SHSN OVC025
     FM151400 34012KT P6SM BKN035=



000
FTUS43 KAPX 141700
TAFAPN
TAF
KAPN 141720Z 1418/1518 32015G25KT 4SM BR BKN015 OVC028
     FM150100 33010G17KT 1 1/2SM -SN OVC009
     FM151000 34010G17KT P6SM BKN018 OVC025
     FM151500 32015G22KT P6SM BKN040=



000
FTUS43 KAPX 141700
TAFPLN
TAF
KPLN 141720Z 1418/1518 33018G30KT P6SM VCSH OVC019
     FM150200 32012G20KT 2SM -SN OVC018
     FM150800 32009G18KT P6SM -SHSN OVC025
     FM151600 31011G20KT P6SM BKN040=



000
FTUS43 KAPX 141600 AAC
TAFPLN
TAF AMD
KPLN 141600Z 1416/1512 33018G30KT 2SM -SN OVC015
      TEMPO 1416/1417 1SM -SN
     FM141700 33018G30KT P6SM VCSH OVC018
     FM150200 32012G20KT 2SM -SN OVC018
     FM150800 32009G18KT P6SM -SHSN OVC020=



000
FTUS43 KAPX 141500 AAB
TAFTVC
TAF AMD
KTVC 141558Z 1416/1512 33016G28KT 2SM -SN OVC015
     FM141700 33016G30KT P6SM VCSH OVC018
     FM150100 33012G22KT 2SM -SN OVC015
     FM150700 32010G18KT 6SM -SHSN OVC022=



000
FTUS43 KAPX 141500 AAA
TAFAPN
TAF AMD
KAPN 141529Z 1415/1512 31013G25KT 3SM -RA OVC007
     FM141630 32015G25KT 4SM BR OVC014
     FM150100 33010G17KT 3SM -SN OVC022
     FM151100 34010KT P6SM BKN025=



000
FTUS43 KAPX 141400 AAB
TAFPLN
TAF AMD
KPLN 141459Z 1415/1512 33018G30KT 2SM -SN OVC015
      TEMPO 1415/1416 1/4SM +SN VV009
     FM141700 34018G30KT 6SM -FZDZSN OVC018
     FM141900 33018G28KT P6SM OVC022
     FM150100 32012G20KT 4SM -SN OVC018
     FM150600 32009KT P6SM BKN022=



000
FTUS43 KAPX 141300 AAA
TAFTVC
TAF AMD
KTVC 141340Z 1414/1512 33014G20KT 2SM -SN BKN009 OVC015
     FM141600 33016G28KT 6SM -FZDZSN OVC018
     FM141800 33016G28KT P6SM OVC018
     FM150000 33012G22KT 2SM -SHSN OVC015
     FM150600 32010G18KT 6SM -SHSN BKN022=



000
FTUS43 KAPX 141200 AAA
TAFPLN
TAF AMD
KPLN 141236Z 1413/1512 35012G22KT 2SM -SN OVC006
     FM141500 33018G30KT 2SM -SN OVC015
     FM141700 34018G30KT 6SM -FZDZSN OVC018
     FM141900 33018G28KT P6SM OVC022
     FM150100 32012G20KT 4SM -SN OVC018
     FM150600 32009KT P6SM BKN022=



000
FTUS43 KAPX 141100
TAFTVC
TAF
KTVC 141120Z 1412/1512 35012G23KT 5SM -RA BR OVC006
     FM141400 33018G30KT 3SM -SHSN OVC015
     FM141600 33016G28KT 6SM -FZDZSN OVC018
     FM141800 33016G28KT P6SM OVC018
     FM150000 33012G22KT 2SM -SHSN OVC015
     FM150600 32010G18KT 6SM -SHSN BKN022=



000
FTUS43 KAPX 141100
TAFAPN
TAF
KAPN 141120Z 1412/1512 35005KT 6SM -RA BR OVC004
      TEMPO 1412/1416 4SM -RADZ BR OVC007
     FM141600 32015G25KT P6SM OVC018
     FM150100 33010G17KT 3SM -SN OVC022
     FM151100 34010KT P6SM BKN025=



000
FTUS43 KAPX 141100
TAFPLN
TAF
KPLN 141120Z 1412/1512 35012G22KT 6SM -RA BR OVC005
      TEMPO 1412/1415 3SM RA BR OVC009
     FM141500 33018G30KT 2SM -SN OVC015
     FM141700 34018G30KT 6SM -FZDZSN OVC018
     FM141900 33018G28KT P6SM OVC022
     FM150100 32012G20KT 4SM -SN OVC018
     FM150600 32009KT P6SM BKN022=



000
FTUS43 KAPX 141000 CCA
TAFTVC
TAF COR
KTVC 141040Z 1411/1506 35012G23KT 5SM -RA BR OVC006
     FM141400 33018G30KT 3SM -SHSN OVC015
     FM141600 33016G28KT 6SM -FZDZSN OVC018
     FM141800 33016G28KT P6SM OVC018
     FM150000 33010G18KT 2SM -SHSN OVC015=



000
FTUS43 KAPX 141000 AAA
TAFTVC
TAF AMD
KTVC 141034Z 1411/1506 35012G23KT 5SM -RA BR OVC006
     FM141400 33018G30KT 3SM -SHSN OVC015
     FM141600 33016G28KT 6SM -FZDZSN OVC018
     FM150000 33010G18KT 2SM -SHSN OVC015=



000
FTUS43 KAPX 141000 AAA
TAFPLN
TAF AMD
KPLN 141029Z 1410/1506 35008KT 6SM -RA BR OVC006
      TEMPO 1410/1413 3SM RA BR OVC004
     FM141300 35015G24KT 6SM -RA OVC009
     FM141500 33018G30KT 2SM -SN OVC015
     FM141700 34018G30KT 6SM -FZDZSN OVC018
     FM141900 33018G28KT P6SM OVC022
     FM150100 32012G20KT 4SM -SN OVC018=



000
FTUS43 KAPX 141000 AAA
TAFAPN
TAF AMD
KAPN 141023Z 1410/1506 36005KT 6SM RA BR OVC004
      TEMPO 1410/1413 3SM -RA BR
     FM141300 32008KT 6SM -SHRA OVC006
     FM141500 32012G22KT P6SM OVC015
     FM141700 32015G25KT P6SM OVC024
     FM150100 33010G17KT 3SM -SN OVC022=



000
FTUS43 KAPX 140500
TAFPLN
TAF
KPLN 140540Z 1406/1506 02010KT 6SM -RA BR OVC006
      TEMPO 1406/1410 3SM RA BR OVC004
     FM141100 35015G24KT 3SM -RA OVC009
     FM141500 33018G30KT 6SM -SHSN OVC017
     FM142300 32012G21KT 2SM -SHSN OVC015=



000
FTUS43 KAPX 140500
TAFAPN
TAF
KAPN 140540Z 1406/1506 04006KT 6SM -RA BR OVC006
      TEMPO 1406/1410 3SM RA BR OVC004
     FM141000 VRB03KT 2SM -RA BR OVC003
     FM141300 32008KT 6SM -SHRA OVC006
     FM141500 32012G22KT P6SM VCSH OVC015
     FM141700 32015G25KT P6SM VCSH OVC024
     FM150100 33010G17KT 3SM -SN OVC022=



000
FTUS43 KAPX 140500
TAFTVC
TAF
KTVC 140540Z 1406/1506 02007KT 6SM -RA BR OVC006
      TEMPO 1406/1410 2SM RA BR OVC004
     FM141100 34012G21KT 4SM -RA OVC012
     FM141500 33018G30KT 3SM -SHSN OVC015
     FM142300 33010G17KT 2SM -SHSN OVC014=



000
FTUS43 KAPX 140300 AAA
TAFTVC
TAF AMD
KTVC 140306Z 1403/1424 02005KT 2SM RA BR OVC003
     FM140700 35011KT 3SM RA BR OVC006
     FM141300 34013G28KT 2SM -SNRA OVC008
     FM141600 34017G30KT 3SM -SHSN OVC015=



000
FTUS43 KAPX 140300 AAA
TAFAPN
TAF AMD
KAPN 140305Z 1403/1424 04004KT 1SM RA BR OVC003
     FM140900 03010KT 2SM RA BR OVC005
     FM141400 33012G22KT 6SM -SHRA OVC009
     FM141700 32012G22KT 5SM -SHSNRA OVC022=



000
FTUS43 KAPX 132300
TAFPLN
TAF
KPLN 132332Z 1400/1424 02006KT P6SM OVC009
     FM140300 02008KT 3SM RA BR OVC008
     FM141200 34013G21KT 2SM -SN OVC007
     FM141600 32018G30KT 6SM -SHSN OVC017=



000
FTUS43 KAPX 132300
TAFTVC
TAF
KTVC 132332Z 1400/1424 02006KT P6SM OVC006
     FM140100 02009KT 3SM RA BR OVC006
     FM140700 35011KT 3SM RA BR OVC006
     FM141300 34013G28KT 2SM -SNRA OVC008
     FM141600 34017G30KT 3SM -SHSN OVC015=



000
FTUS43 KAPX 132300
TAFAPN
TAF
KAPN 132332Z 1400/1424 04006KT P6SM OVC008
     FM140200 05004KT 3SM RA BR OVC008
     FM140900 05012KT 2SM RA BR OVC005
     FM141400 33012G22KT 6SM -SHRA OVC009
     FM141700 32012G22KT 5SM -SHSNRA OVC022=



000
FTUS43 KAPX 131900 AAA
TAFPLN
TAF AMD
KPLN 131939Z 1320/1418 01007KT P6SM OVC015
     FM132030 36006KT P6SM OVC008
     FM140200 02008KT 3SM RA BR OVC008
     FM141000 34013KT 2SM -SN OVC007
     FM141600 33015G25KT P6SM OVC015=



000
FTUS43 KAPX 131900 AAA
TAFAPN
TAF AMD
KAPN 131908Z 1319/1418 32006KT P6SM OVC018
     FM132300 04006KT 3SM BR OVC008
     FM140300 05004KT 3SM RA BR OVC008
     FM140900 05012KT 2SM RA BR OVC005
     FM141300 04012G22KT 5SM -RAPL OVC009=



000
FTUS43 KAPX 131700 CCA
TAFAPN
TAF COR
KAPN 131756Z 1318/1418 32006KT P6SM BKN005 OVC018
     FM132300 04006KT 3SM BR OVC008
     FM140300 05004KT 3SM RA BR OVC008
     FM140900 05012KT 2SM RA BR OVC005
     FM141300 04012G22KT 5SM -RAPL OVC009=



000
FTUS43 KAPX 131700
TAFPLN
TAF
KPLN 131733Z 1318/1418 VRB03KT 6SM BR OVC004
     FM140200 02008KT 3SM RA BR OVC008
     FM141000 34013KT 2SM -SN OVC007
     FM141600 33015G25KT P6SM OVC015=



000
FTUS43 KAPX 131700
TAFAPN
TAF
KAPN 131733Z 1318/1418 32006KT P6SM SCT008 OVC035
     FM132300 04006KT 3SM BR OVC008
     FM140300 05004KT 3SM RA BR OVC008
     FM140900 05012KT 2SM RA BR OVC005
     FM141300 04012G22KT 5SM -RAPL OVC009=



000
FTUS43 KAPX 131700
TAFTVC
TAF
KTVC 131733Z 1318/1418 35007KT P6SM OVC006
     FM140100 02009KT 3SM RA BR OVC006
     FM140700 35014KT 3SM RA BR OVC006
     FM141300 34013G28KT 2SM -SN OVC008
     FM141600 34014G30KT P6SM OVC015=



000
FTUS43 KAPX 131600 AAC
TAFTVC
TAF AMD
KTVC 131614Z 1316/1412 VRB04KT P6SM BKN009 OVC012
     FM131900 36005KT 6SM BR SCT009 OVC018
     FM140100 02009KT 3SM RA BR OVC006
     FM140700 35014KT 3SM RA BR OVC006 WS015/36030KT
     FM141100 34012G24KT 2SM -SN OVC008 WS018/01030KT=



000
FTUS43 KAPX 131500 AAB
TAFTVC
TAF AMD
KTVC 131507Z 1315/1412 VRB04KT P6SM SCT015 OVC035
     FM131700 36005KT 6SM BR SCT009 OVC018
     FM140100 02009KT 3SM RA BR OVC006
     FM140700 35014KT 3SM RA BR OVC006 WS015/36030KT
     FM141100 34012G24KT 2SM -SN OVC008 WS018/01030KT=



000
FTUS43 KAPX 131200 AAA
TAFTVC
TAF AMD
KTVC 131213Z 1312/1412 VRB04KT 3SM -RA BR BKN015 OVC035
      TEMPO 1312/1315 1/2SM FG BKN009 OVC020
     FM131500 VRB04KT 4SM BR OVC009
     FM131700 36005KT 6SM BR SCT009 OVC018
     FM140100 02009KT 3SM RA BR OVC006
     FM140700 35014KT 3SM RA BR OVC006 WS015/36030KT
     FM141100 34012G24KT 2SM -SN OVC008 WS018/01030KT=



000
FTUS43 KAPX 131100
TAFAPN
TAF
KAPN 131138Z 1312/1412 13009KT 3SM RA BR OVC003
     FM131500 13005KT 3SM -DZ BR OVC006
     FM132000 31006KT 6SM BR OVC018
     FM140200 05004KT 3SM RA BR OVC008
     FM140600 31005KT 2SM RA BR OVC005 WS015/24035KT=



000
FTUS43 KAPX 131100
TAFPLN
TAF
KPLN 131138Z 1312/1412 09005KT 1SM -RA BR OVC004
     FM131400 VRB03KT 2SM -DZ BR OVC005
     FM131900 33005KT 5SM BR OVC012
     FM140200 34008KT 3SM RA BR OVC008
     FM141000 34013KT 2SM -SN OVC007=



000
FTUS43 KAPX 131100
TAFTVC
TAF
KTVC 131138Z 1312/1412 VRB04KT 4SM -RA BR BKN015 OVC035
      TEMPO 1312/1314 BKN009 OVC020
     FM131400 VRB04KT 4SM BR OVC009
     FM131700 36005KT 6SM BR SCT009 OVC018
     FM140100 02009KT 3SM RA BR OVC006
     FM140700 35014KT 3SM RA BR OVC006 WS015/36030KT
     FM141100 34012G24KT 2SM -SN OVC008 WS018/01030KT=



000
FTUS43 KAPX 131000 CCA
TAFAPN
TAF COR
KAPN 131020Z 1310/1406 13009KT 5SM -RA BR OVC004
      TEMPO 1311/1314 3/4SM -RA BR OVC002
     FM131400 13005KT 2SM -DZ BR OVC006
     FM131700 07005KT 6SM BR OVC012
     FM140000 05004KT 3SM SHRA BR OVC008
     FM140300 VRB03KT 1SM SHRA BR OVC003=



000
FTUS43 KAPX 131000 CCA
TAFPLN
TAF COR
KPLN 131017Z 1310/1406 00000KT 1/4SM -DZ FG VV002
     FM131300 VRB03KT 2SM -DZ BR OVC005
     FM131600 VRB05KT P6SM OVC012
     FM132100 34006KT P6SM OVC016
     FM140100 34008KT 3SM SHRA BR OVC009=



000
FTUS43 KAPX 131000 AAA
TAFTVC
TAF AMD
KTVC 131014Z 1310/1406 00000KT 6SM -RA BR SCT006 OVC014
      TEMPO 1310/1312 4SM -RA BR OVC006
     FM131200 00000KT 6SM -DZ BR OVC006
     FM131500 VRB05KT P6SM OVC014
     FM132300 02009KT 2SM SHRA BR OVC006=



000
FTUS43 KAPX 131000 AAA
TAFPLN
TAF AMD
KPLN 131009Z 1310/1406 00000KT 1/4SM FG VV002
     FM131300 VRB03KT 2SM BR OVC005
     FM131600 VRB05KT P6SM OVC012
     FM132100 34006KT P6SM OVC016
     FM140100 34008KT 3SM SHRA BR OVC009=



000
FTUS43 KAPX 130900 AAA
TAFAPN
TAF AMD
KAPN 130958Z 1310/1406 13009KT 5SM BR OVC004
      TEMPO 1311/1314 3/4SM -DZ BR OVC002
     FM131400 VRB03KT 3SM -SHRA BR OVC009
     FM131700 07005KT 6SM BR VCSH OVC012
     FM140000 05004KT 3SM SHRA BR OVC008
     FM140300 VRB03KT 1SM SHRA BR OVC003=



000
FTUS43 KAPX 130500
TAFTVC
TAF
KTVC 130520Z 1306/1406 07005KT P6SM OVC009 WS020/21032KT
     FM130800 VRB03KT 4SM BR VCSH OVC008 WS020/24034KT
     FM131000 VRB03KT 3SM SHRA BR OVC007
     FM131500 35005KT P6SM OVC014
     FM140100 02009KT 2SM SHRA BR OVC006=



000
FTUS43 KAPX 130500
TAFPLN
TAF
KPLN 130520Z 1306/1406 09008KT P6SM -RA OVC007
     FM131600 34007KT P6SM OVC012
     FM132100 34006KT P6SM VCSH OVC016
     FM140200 34007KT 3SM SHRA BR OVC008=



000
FTUS43 KAPX 130500
TAFAPN
TAF
KAPN 130520Z 1306/1406 09008KT P6SM -RA OVC008
     FM131300 VRB03KT 3SM -SHRA BR OVC012
     FM131700 07005KT 6SM BR VCSH OVC018
     FM140000 05004KT 3SM SHRA BR OVC008=



    US Dept of Commerce
    National Oceanic and Atmospheric Administration
    National Weather Service
    1325 East West Highway
    Silver Spring, MD 20910
    Page Author: NWS Internet Services Team
Disclaimer
Information Quality
Credits
Glossary
Privacy Policy
Freedom of Information Act (FOIA)
About Us
Career Opportunities